Time;durP1;ratioP1;P1;durP2;ratioP2;P2;SDS_P1;SDS_P2;PMS_P1;PMS_P2;Temp;Humidity;BMP_temperature;BMP_pressure;BME280_temperature;BME280_humidity;BME280_pressure;Samples;Min_cycle;Max_cycle;Signal;HPM_P1;HPM_P2
2023/04/14 05:57:19;;;;;;;;;;;17.90;96.20;;;;;;6244978;22;19944;-74
2023/04/14 05:59:45;;;;;;;;;;;17.80;95.30;;;;;;6242296;23;19970;-73
2023/04/14 06:02:12;;;;;;;;;;;17.80;95.40;;;;;;6243292;23;19993;-75
2023/04/14 06:04:39;;;;;;;;;;;17.80;95.50;;;;;;6242646;23;20235;-75
2023/04/14 06:07:06;;;;;;;;;;;17.90;95.20;;;;;;6242011;22;19934;-75
2023/04/14 06:09:32;;;;;;;;;;;17.90;94.80;;;;;;6242427;23;19908;-75
2023/04/14 06:12:00;;;;;;;;;;;17.90;94.50;;;;;;6242375;23;19926;-75
2023/04/14 06:14:27;;;;;;;;;;;18.00;94.80;;;;;;6243019;23;19908;-75
2023/04/14 06:16:54;;;;;;;;;;;17.90;94.10;;;;;;6242330;22;19958;-77
2023/04/14 06:19:21;;;;;;;;;;;18.00;94.10;;;;;;6242112;23;19920;-75
2023/04/14 06:21:48;;;;;;;;;;;18.00;92.80;;;;;;6241701;23;19954;-75
2023/04/14 06:24:14;;;;;;;;;;;18.10;93.90;;;;;;6242642;23;19908;-74
2023/04/14 06:26:41;;;;;;;;;;;18.10;93.50;;;;;;6242753;22;20223;-74
2023/04/14 06:29:08;;;;;;;;;;;18.00;92.80;;;;;;6242351;23;19912;-74
2023/04/14 06:31:35;;;;;;;;;;;18.10;93.40;;;;;;6241751;23;20026;-74
2023/04/14 06:34:02;;;;;;;;;;;18.10;93.80;;;;;;6242664;23;20328;-74
2023/04/14 06:36:28;;;;;;;;;;;18.10;93.50;;;;;;6242104;22;19903;-73
2023/04/14 06:38:56;;;;;;;;;;;18.10;93.70;;;;;;6242559;23;19915;-73
2023/04/14 06:41:22;;;;;;;;;;;18.10;93.00;;;;;;6242185;23;20238;-73
2023/04/14 06:43:49;;;;;;;;;;;18.10;94.00;;;;;;6242349;23;19938;-76
2023/04/14 06:46:20;;;;;;;;;;;18.10;94.00;;;;;;6241331;22;20139;-73
2023/04/14 06:48:46;;;;;;;;;;;18.10;93.90;;;;;;6240291;23;19911;-74
2023/04/14 06:51:13;;;;;;;;;;;18.10;94.10;;;;;;6242288;23;20281;-74
2023/04/14 06:53:40;;;;;;;;;;;18.10;94.30;;;;;;6241750;23;19939;-75
2023/04/14 07:21:02;;;;;;;;;;;18.00;95.20;;;;;;6267295;22;20380;-76
2023/04/14 07:23:29;;;;;;;;;;;17.90;95.10;;;;;;6271563;22;19919;-75
2023/04/14 07:25:56;;;;;;;;;;;18.00;95.10;;;;;;6272118;22;20262;-75
2023/04/14 07:28:23;;;;;;;;;;;18.00;95.20;;;;;;6272174;22;19974;-75
2023/04/14 07:30:51;;;;;;;;;;;18.00;95.30;;;;;;6271159;22;19912;-75
2023/04/14 07:33:18;;;;;;;;;;;18.00;95.40;;;;;;6269073;22;19908;-75
2023/04/14 07:35:45;;;;;;;;;;;18.00;95.40;;;;;;6271995;22;19911;-75
2023/04/14 07:38:12;;;;;;;;;;;18.00;95.40;;;;;;6271753;22;20381;-78
2023/04/14 07:40:39;;;;;;;;;;;18.00;95.40;;;;;;6271707;22;19917;-76
2023/04/14 07:43:06;;;;;;;;;;;17.90;95.40;;;;;;6271904;22;19983;-75
2023/04/14 07:45:32;;;;;;;;;;;17.90;95.40;;;;;;6271990;22;19903;-74
2023/04/14 07:47:59;;;;;;;;;;;18.00;95.50;;;;;;6270442;22;20401;-74
2023/04/14 07:50:26;;;;;;;;;;;17.90;95.50;;;;;;6272449;22;19915;-74
2023/04/14 07:52:53;;;;;;;;;;;17.90;95.60;;;;;;6270597;22;20289;-74
2023/04/14 07:55:19;;;;;;;;;;;17.90;95.60;;;;;;6271646;22;19978;-73
2023/04/14 07:57:46;;;;;;;;;;;17.90;95.60;;;;;;6271181;22;19915;-73
2023/04/14 08:00:13;;;;;;;;;;;17.90;95.60;;;;;;6271639;22;19907;-72
2023/04/14 08:02:40;;;;;;;;;;;17.90;95.60;;;;;;6272133;22;20024;-73
2023/04/14 08:05:07;;;;;;;;;;;17.90;95.60;;;;;;6271838;22;19911;-73
2023/04/14 08:07:34;;;;;;;;;;;17.90;95.70;;;;;;6271717;22;19907;-72
2023/04/14 08:10:00;;;;;;;;;;;17.90;95.70;;;;;;6269145;22;20029;-74
2023/04/14 08:12:27;;;;;;;;;;;17.90;95.80;;;;;;6270423;22;19907;-78
2023/04/14 08:14:55;;;;;;;;;;;17.90;95.90;;;;;;6270575;22;19907;-73
2023/04/14 08:17:23;;;;;;;;;;;17.90;95.90;;;;;;6270099;22;19957;-74
2023/04/14 09:24:27;;;;;;;;;;;17.00;95.70;;;;;;6266451;22;20502;-74
2023/04/14 09:26:54;;;;;;;;;;;17.00;96.00;;;;;;6270736;22;19951;-72
2023/04/14 09:29:21;;;;;;;;;;;17.00;96.10;;;;;;6274143;22;19981;-73
2023/04/14 09:31:48;;;;;;;;;;;17.00;96.10;;;;;;6272651;22;19907;-73
2023/04/14 09:34:16;;;;;;;;;;;17.00;96.10;;;;;;6221323;22;20443;-73
2023/04/14 09:37:06;;;;;;;;;;;17.00;96.10;;;;;;6272882;22;20244;-71
2023/04/14 09:39:33;;;;;;;;;;;17.00;96.00;;;;;;6273928;22;19915;-73
2023/04/14 09:42:00;;;;;;;;;;;17.00;96.10;;;;;;6273315;22;19908;-71
2023/04/14 09:44:27;;;;;;;;;;;17.00;96.10;;;;;;6271308;22;19926;-71
2023/04/14 09:47:06;;;;;;;;;;;16.90;96.00;;;;;;6272558;22;20322;-71
2023/04/14 09:49:33;;;;;;;;;;;16.90;96.00;;;;;;6272637;22;19943;-71
2023/04/14 09:52:02;;;;;;;;;;;16.90;96.10;;;;;;6273125;22;19935;-71
2023/04/14 09:54:29;;;;;;;;;;;16.90;96.10;;;;;;6274009;22;19907;-71
2023/04/14 09:56:56;;;;;;;;;;;16.90;96.00;;;;;;6272826;22;19942;-72
2023/04/14 09:59:49;;;;;;;;;;;16.90;96.20;;;;;;6272812;22;19922;-72
2023/04/14 10:02:15;;;;;;;;;;;16.90;96.20;;;;;;6266110;22;19903;-71
2023/04/14 10:04:42;;;;;;;;;;;16.90;96.20;;;;;;6273727;22;20307;-71
2023/04/14 10:07:11;;;;;;;;;;;17.00;96.30;;;;;;6273363;22;19908;-72
2023/04/14 10:09:37;;;;;;;;;;;16.90;96.00;;;;;;6270191;22;20033;-74
2023/04/14 10:12:13;;;;;;;;;;;16.90;96.10;;;;;;6271745;22;20310;-74
2023/04/14 10:14:40;;;;;;;;;;;17.00;96.10;;;;;;6272980;22;20269;-74
2023/04/14 10:17:07;;;;;;;;;;;17.00;96.20;;;;;;6272649;22;20453;-73
2023/04/14 10:19:37;;;;;;;;;;;17.00;96.20;;;;;;6272152;22;19915;-75
2023/04/14 10:22:07;;;;;;;;;;;17.00;96.30;;;;;;6273409;22;19957;-77
2023/04/14 10:24:33;;;;;;;;;;;17.00;96.30;;;;;;6273571;22;19907;-79
2023/04/14 10:27:03;;;;;;;;;;;17.00;96.30;;;;;;6272843;22;19972;-77
2023/04/14 10:29:30;;;;;;;;;;;17.10;96.40;;;;;;6245664;22;19911;-73
2023/04/14 10:32:00;;;;;;;;;;;17.00;96.20;;;;;;6272380;22;19930;-86
2023/04/14 10:34:27;;;;;;;;;;;16.90;96.10;;;;;;6273889;22;20318;-80
2023/04/14 10:36:53;;;;;;;;;;;16.90;96.20;;;;;;6272971;22;19903;-80
2023/04/14 10:39:23;;;;;;;;;;;16.90;96.30;;;;;;6270719;22;19981;-80
2023/04/14 10:41:51;;;;;;;;;;;16.90;96.30;;;;;;6270930;22;20315;-79
2023/04/14 10:44:24;;;;;;;;;;;16.80;96.20;;;;;;6271944;22;19914;-81
2023/04/14 10:46:51;;;;;;;;;;;16.80;96.20;;;;;;6271071;22;19907;-82
2023/04/14 10:49:17;;;;;;;;;;;16.80;96.20;;;;;;6269377;22;19911;-78
2023/04/14 10:51:44;;;;;;;;;;;16.80;96.30;;;;;;6272708;22;20352;-76
2023/04/14 10:54:16;;;;;;;;;;;16.80;96.20;;;;;;6245566;22;20237;-79
2023/04/14 10:56:47;;;;;;;;;;;16.80;96.20;;;;;;6244878;22;19907;-79
2023/04/14 10:59:16;;;;;;;;;;;16.80;96.20;;;;;;6245352;22;19934;-79
2023/04/14 11:01:43;;;;;;;;;;;16.80;96.30;;;;;;6245593;22;19911;-79
2023/04/14 11:04:17;;;;;;;;;;;16.80;96.20;;;;;;6271658;22;20010;-78
2023/04/14 11:06:47;;;;;;;;;;;16.80;96.20;;;;;;6271218;22;20277;-80
2023/04/14 11:09:30;;;;;;;;;;;16.80;96.30;;;;;;6272004;22;19907;-80
2023/04/14 11:11:57;;;;;;;;;;;16.80;96.10;;;;;;6272442;22;19911;-76
2023/04/14 11:14:27;;;;;;;;;;;16.80;96.20;;;;;;6242769;22;19953;-78
2023/04/14 11:17:00;;;;;;;;;;;16.80;96.20;;;;;;6270206;22;19907;-78
2023/04/14 11:19:27;;;;;;;;;;;16.80;96.10;;;;;;6272733;22;20344;-81
2023/04/14 11:21:54;;;;;;;;;;;16.70;96.20;;;;;;6271214;22;19951;-80
2023/04/14 11:30:02;;;;;;;;;;;16.70;96.10;;;;;;6247755;22;20313;-79
2023/04/14 11:32:30;;;;;;;;;;;16.60;95.90;;;;;;6214151;23;20240;-80
2023/04/14 11:35:06;;;;;;;;;;;16.60;96.00;;;;;;6241393;23;20345;-79
2023/04/14 11:37:33;;;;;;;;;;;16.60;96.00;;;;;;6241425;22;19904;-79
2023/04/14 11:40:00;;;;;;;;;;;16.60;95.90;;;;;;6242078;23;19919;-79
2023/04/14 11:42:27;;;;;;;;;;;16.50;95.80;;;;;;6214252;23;19981;-79
2023/04/14 11:44:59;;;;;;;;;;;16.60;95.60;;;;;;6214829;23;19915;-79
2023/04/14 11:47:26;;;;;;;;;;;16.60;95.50;;;;;;6236141;22;20250;-80
2023/04/14 11:49:53;;;;;;;;;;;16.60;95.40;;;;;;6241641;23;19934;-80
2023/04/14 11:52:20;;;;;;;;;;;16.50;95.20;;;;;;6241271;23;19907;-79
2023/04/14 11:54:47;;;;;;;;;;;16.50;94.90;;;;;;6241267;23;19908;-80
2023/04/14 11:57:16;;;;;;;;;;;16.50;94.80;;;;;;6241351;22;20262;-80
2023/04/14 11:59:43;;;;;;;;;;;16.50;94.80;;;;;;6242401;23;19923;-79
2023/04/14 12:02:17;;;;;;;;;;;16.40;94.60;;;;;;6215466;23;19986;-79
2023/04/14 12:04:48;;;;;;;;;;;16.40;94.50;;;;;;6240944;23;19908;-80
2023/04/14 12:07:16;;;;;;;;;;;16.30;94.30;;;;;;6241156;22;19903;-79
2023/04/14 12:09:49;;;;;;;;;;;16.30;94.50;;;;;;6240300;23;19904;-80
2023/04/14 12:12:16;;;;;;;;;;;16.30;94.60;;;;;;6208059;23;20435;-79
2023/04/14 12:14:47;;;;;;;;;;;16.30;94.50;;;;;;6240465;23;19910;-79
2023/04/14 12:17:17;;;;;;;;;;;16.30;94.60;;;;;;6213367;23;20224;-80
2023/04/14 12:19:47;;;;;;;;;;;16.30;94.40;;;;;;6239673;23;19916;-79
2023/04/14 12:22:22;;;;;;;;;;;16.20;94.20;;;;;;6240001;23;19907;-79
2023/04/14 12:24:49;;;;;;;;;;;16.20;94.20;;;;;;6240801;23;19979;-80
2023/04/14 12:27:19;;;;;;;;;;;16.20;94.10;;;;;;6240613;22;19907;-80
2023/04/14 12:29:47;;;;;;;;;;;16.20;94.00;;;;;;6241105;22;19994;-80
2023/04/14 12:32:14;;;;;;;;;;;16.20;93.80;;;;;;6238986;23;19903;-79
2023/04/14 12:34:41;;;;;;;;;;;16.20;93.70;;;;;;6240448;23;19914;-79
2023/04/14 12:37:08;;;;;;;;;;;16.20;93.60;;;;;;6241446;22;19927;-79
2023/04/14 12:39:56;;;;;;;;;;;16.20;93.50;;;;;;6241924;23;19926;-79
2023/04/14 12:42:23;;;;;;;;;;;16.20;93.60;;;;;;6239870;23;19904;-79
2023/04/14 12:44:53;;;;;;;;;;;16.20;93.60;;;;;;6241068;23;19907;-78
2023/04/14 12:47:30;;;;;;;;;;;16.20;93.20;;;;;;6212552;23;20742;-76
2023/04/14 12:49:57;;;;;;;;;;;16.20;93.20;;;;;;6242205;23;19918;-78
2023/04/14 12:52:37;;;;;;;;;;;16.20;93.10;;;;;;6216353;23;19942;-74
2023/04/14 12:55:04;;;;;;;;;;;16.20;93.00;;;;;;6216862;23;19918;-73
2023/04/14 12:57:31;;;;;;;;;;;16.20;93.10;;;;;;6245462;22;20218;-75
2023/04/14 13:00:00;;;;;;;;;;;16.10;93.10;;;;;;6246536;23;20483;-75
2023/04/14 13:02:31;;;;;;;;;;;16.10;93.30;;;;;;6245820;23;19935;-75
2023/04/14 13:04:58;;;;;;;;;;;16.10;93.10;;;;;;6244394;23;20319;-76
2023/04/14 13:07:25;;;;;;;;;;;16.10;93.30;;;;;;6245446;22;19911;-76
2023/04/14 14:20:06;;;;;;;;;;;15.70;93.50;;;;;;6272704;22;19922;-76
2023/04/14 14:22:33;;;;;;;;;;;15.60;93.60;;;;;;6275947;22;19943;-76
2023/04/14 14:25:00;;;;;;;;;;;15.60;93.60;;;;;;6275433;22;19911;-75
2023/04/14 14:27:26;;;;;;;;;;;15.60;93.70;;;;;;6276045;22;19903;-76
2023/04/14 14:29:53;;;;;;;;;;;15.60;93.80;;;;;;6275810;22;19949;-75
2023/04/14 14:32:20;;;;;;;;;;;15.50;93.60;;;;;;6276052;22;20215;-76
2023/04/14 14:34:47;;;;;;;;;;;15.50;93.70;;;;;;6276288;22;19982;-75
2023/04/14 14:37:14;;;;;;;;;;;15.50;93.50;;;;;;6276212;22;20241;-76
2023/04/14 14:39:41;;;;;;;;;;;15.50;93.50;;;;;;6276086;22;19943;-76
2023/04/14 14:42:08;;;;;;;;;;;15.50;93.40;;;;;;6276418;22;20313;-76
2023/04/14 14:44:35;;;;;;;;;;;15.50;93.30;;;;;;6275941;22;19927;-76
2023/04/14 14:47:02;;;;;;;;;;;15.50;93.20;;;;;;6275959;22;20258;-76
2023/04/14 14:49:28;;;;;;;;;;;15.50;93.20;;;;;;6276468;22;19982;-76
2023/04/14 14:51:55;;;;;;;;;;;15.40;93.00;;;;;;6276236;22;20338;-76
2023/04/14 14:54:22;;;;;;;;;;;15.40;93.30;;;;;;6276282;22;20223;-76
2023/04/14 14:56:49;;;;;;;;;;;15.40;93.10;;;;;;6276283;22;19949;-76
2023/04/14 14:59:16;;;;;;;;;;;15.40;93.10;;;;;;6276089;22;19911;-76
2023/04/14 15:01:44;;;;;;;;;;;15.40;93.10;;;;;;6272842;22;19907;-76
2023/04/14 15:04:11;;;;;;;;;;;15.40;93.40;;;;;;6275103;22;19982;-76
2023/04/14 15:06:38;;;;;;;;;;;15.40;93.20;;;;;;6275373;22;19904;-76
2023/04/14 15:09:05;;;;;;;;;;;15.40;92.90;;;;;;6275418;22;19908;-76
2023/04/14 15:11:32;;;;;;;;;;;15.40;93.20;;;;;;6274856;22;20319;-76
2023/04/14 15:13:59;;;;;;;;;;;15.40;93.20;;;;;;6275383;22;19911;-76
2023/04/14 15:16:25;;;;;;;;;;;15.30;93.00;;;;;;6247896;22;19911;-76
2023/04/14 15:18:52;;;;;;;;;;;15.30;93.10;;;;;;6276171;22;19911;-76
2023/04/14 15:21:19;;;;;;;;;;;15.30;93.20;;;;;;6274037;22;19969;-76
2023/04/14 15:23:45;;;;;;;;;;;15.30;93.30;;;;;;6273882;22;19931;-76
2023/04/14 15:26:13;;;;;;;;;;;15.40;93.30;;;;;;6274946;22;19910;-77
2023/04/14 15:28:40;;;;;;;;;;;15.40;93.40;;;;;;6275872;22;19914;-76
2023/04/14 15:31:07;;;;;;;;;;;15.40;93.30;;;;;;6275846;22;19904;-76
2023/04/14 15:33:33;;;;;;;;;;;15.40;93.20;;;;;;6274367;22;20715;-75
2023/04/14 15:36:00;;;;;;;;;;;15.40;93.10;;;;;;6274819;22;20462;-75
2023/04/14 15:38:27;;;;;;;;;;;15.40;92.90;;;;;;6275274;22;19918;-75
2023/04/14 15:40:54;;;;;;;;;;;15.40;93.00;;;;;;6275893;22;19931;-75
2023/04/14 15:43:21;;;;;;;;;;;15.40;92.90;;;;;;6275139;22;20280;-75
2023/04/14 15:45:47;;;;;;;;;;;15.40;92.90;;;;;;6276413;22;19911;-75
2023/04/14 15:48:14;;;;;;;;;;;15.40;92.90;;;;;;6249728;22;20333;-75
2023/04/14 15:53:06;;;;;;;;;;;15.30;92.90;;;;;;6278263;22;20219;-75
2023/04/14 15:55:33;;;;;;;;;;;15.40;93.10;;;;;;6275531;22;19914;-75
2023/04/14 15:58:00;;;;;;;;;;;15.30;92.80;;;;;;6275456;22;19907;-75
2023/04/14 16:00:27;;;;;;;;;;;15.30;93.00;;;;;;6275795;22;20318;-74
2023/04/14 16:02:53;;;;;;;;;;;15.30;93.30;;;;;;6274634;22;19923;-75
2023/04/14 16:05:20;;;;;;;;;;;15.30;93.30;;;;;;6273447;22;19985;-75
2023/04/14 16:07:47;;;;;;;;;;;15.30;93.30;;;;;;6274984;22;19903;-75
2023/04/14 16:10:14;;;;;;;;;;;15.30;93.30;;;;;;6273286;22;19903;-75
2023/04/14 16:12:42;;;;;;;;;;;15.30;93.40;;;;;;6274081;22;19903;-75
2023/04/14 16:15:09;;;;;;;;;;;15.20;93.40;;;;;;6273957;22;19903;-75
2023/04/14 16:17:35;;;;;;;;;;;15.20;93.40;;;;;;6275404;22;19903;-75
2023/04/14 16:20:02;;;;;;;;;;;15.20;93.20;;;;;;6272789;22;19912;-75
2023/04/14 16:22:30;;;;;;;;;;;15.20;93.50;;;;;;6273478;22;19958;-75
2023/04/14 16:24:56;;;;;;;;;;;15.20;93.10;;;;;;6274544;22;19974;-75
2023/04/14 16:27:23;;;;;;;;;;;15.20;93.00;;;;;;6250152;22;20271;-75
2023/04/14 16:29:50;;;;;;;;;;;15.20;93.00;;;;;;6277189;22;19914;-75
2023/04/14 16:32:16;;;;;;;;;;;15.20;93.20;;;;;;6275958;22;19910;-75
2023/04/14 16:34:43;;;;;;;;;;;15.20;93.20;;;;;;6276497;22;19903;-75
2023/04/14 16:37:10;;;;;;;;;;;15.20;93.30;;;;;;6275298;22;19907;-74
2023/04/14 16:39:37;;;;;;;;;;;15.20;93.00;;;;;;6276589;22;19919;-75
2023/04/14 16:42:03;;;;;;;;;;;15.20;93.00;;;;;;6276793;22;19979;-75
2023/04/14 16:44:31;;;;;;;;;;;15.20;92.80;;;;;;6275865;22;20237;-75
2023/04/14 16:46:58;;;;;;;;;;;15.20;92.80;;;;;;6276628;22;19931;-75
2023/04/14 16:49:24;;;;;;;;;;;15.20;93.00;;;;;;6277270;22;19911;-75
2023/04/14 16:51:51;;;;;;;;;;;15.20;93.00;;;;;;6277150;22;20053;-75
2023/04/14 16:54:18;;;;;;;;;;;15.20;93.00;;;;;;6276294;22;19915;-75
2023/04/14 16:56:45;;;;;;;;;;;15.20;93.00;;;;;;6276644;22;19998;-75
2023/04/14 16:59:11;;;;;;;;;;;15.20;93.00;;;;;;6276789;22;19936;-75
2023/04/14 17:01:38;;;;;;;;;;;15.20;92.90;;;;;;6276850;22;19915;-76
2023/04/14 17:04:05;;;;;;;;;;;15.20;92.80;;;;;;6276725;22;19906;-75
2023/04/14 17:06:31;;;;;;;;;;;15.20;92.90;;;;;;6277012;22;19903;-75
2023/04/14 17:08:59;;;;;;;;;;;15.20;92.90;;;;;;6276895;22;19938;-75
2023/04/14 17:11:26;;;;;;;;;;;15.20;93.00;;;;;;6276418;22;19918;-75
2023/04/14 17:13:52;;;;;;;;;;;15.20;92.80;;;;;;6276961;22;19911;-75
2023/04/14 17:16:19;;;;;;;;;;;15.20;92.80;;;;;;6276219;22;19949;-75
2023/04/14 17:18:47;;;;;;;;;;;15.20;92.80;;;;;;6277531;22;20269;-75
2023/04/14 17:21:13;;;;;;;;;;;15.20;92.80;;;;;;6276652;22;19907;-75
2023/04/14 17:41:36;;;;;;;;;;;15.00;93.00;;;;;;6271873;22;19926;-75
2023/04/14 17:44:02;;;;;;;;;;;15.10;93.20;;;;;;6276080;22;19996;-75
2023/04/14 17:46:35;;;;;;;;;;;15.00;93.20;;;;;;6276381;22;19907;-75
2023/04/14 17:49:02;;;;;;;;;;;15.00;93.10;;;;;;6276795;22;20211;-75
2023/04/14 17:51:29;;;;;;;;;;;15.00;93.20;;;;;;6276203;22;20519;-75
2023/04/14 17:53:56;;;;;;;;;;;15.00;93.30;;;;;;6248158;22;20322;-75
2023/04/14 17:56:23;;;;;;;;;;;15.00;93.40;;;;;;6248159;22;19907;-75
2023/04/14 17:58:53;;;;;;;;;;;15.00;93.40;;;;;;6276472;22;20005;-75
2023/04/14 18:01:20;;;;;;;;;;;14.90;93.50;;;;;;6275654;22;20249;-75
2023/04/14 18:03:47;;;;;;;;;;;14.90;93.60;;;;;;6276349;22;19912;-76
2023/04/14 18:06:15;;;;;;;;;;;14.90;93.70;;;;;;6276318;22;20215;-75
2023/04/14 18:08:42;;;;;;;;;;;14.90;93.90;;;;;;6276401;22;19938;-75
2023/04/14 18:11:09;;;;;;;;;;;15.00;94.10;;;;;;6276052;22;20311;-75
2023/04/14 18:13:35;;;;;;;;;;;15.00;94.10;;;;;;6275509;22;19907;-75
2023/04/14 18:16:03;;;;;;;;;;;15.00;94.10;;;;;;6276041;22;20347;-75
2023/04/14 18:18:30;;;;;;;;;;;15.00;94.20;;;;;;6275794;22;19915;-75
2023/04/14 18:20:56;;;;;;;;;;;14.90;94.10;;;;;;6275915;22;20349;-75
2023/04/14 18:23:23;;;;;;;;;;;14.90;94.10;;;;;;6276357;22;20219;-75
2023/04/14 18:25:57;;;;;;;;;;;14.90;94.10;;;;;;6276458;22;19958;-75
2023/04/14 18:28:24;;;;;;;;;;;14.90;94.10;;;;;;6276243;22;19986;-76
2023/04/14 18:30:54;;;;;;;;;;;14.90;94.00;;;;;;6276739;22;19904;-76
2023/04/14 18:33:21;;;;;;;;;;;14.90;94.00;;;;;;6276442;22;19903;-76
2023/04/14 18:35:51;;;;;;;;;;;14.80;94.00;;;;;;6276077;22;19972;-76
2023/04/14 18:38:18;;;;;;;;;;;14.80;94.00;;;;;;6276305;22;19926;-73
2023/04/14 18:40:47;;;;;;;;;;;14.80;94.10;;;;;;6276753;22;19911;-76
2023/04/14 18:43:14;;;;;;;;;;;14.80;94.10;;;;;;6275988;22;19961;-76
2023/04/14 18:45:45;;;;;;;;;;;14.80;94.00;;;;;;6276075;22;19907;-76
2023/04/14 18:48:13;;;;;;;;;;;14.80;93.90;;;;;;6275685;22;19911;-76
2023/04/14 18:50:40;;;;;;;;;;;14.80;93.90;;;;;;6276065;22;19910;-76
2023/04/14 18:53:07;;;;;;;;;;;14.80;94.10;;;;;;6275790;22;19904;-76
2023/04/14 18:55:34;;;;;;;;;;;14.80;94.00;;;;;;6276401;22;19978;-76
2023/04/14 18:58:01;;;;;;;;;;;14.80;93.90;;;;;;6276330;22;20242;-76
2023/04/14 19:00:32;;;;;;;;;;;14.70;94.00;;;;;;6274612;22;19903;-76
2023/04/14 19:02:59;;;;;;;;;;;14.70;94.00;;;;;;6275862;22;20278;-75
2023/04/14 19:05:26;;;;;;;;;;;14.70;94.00;;;;;;6275115;22;19908;-75
2023/04/14 19:07:52;;;;;;;;;;;14.70;94.00;;;;;;6271738;22;20254;-74
2023/04/14 19:10:19;;;;;;;;;;;14.70;94.10;;;;;;6274696;22;19931;-75
2023/04/14 19:12:46;;;;;;;;;;;14.60;94.10;;;;;;6275200;22;20273;-76
2023/04/14 19:15:13;;;;;;;;;;;14.70;94.10;;;;;;6274801;22;19918;-75
2023/04/14 19:17:39;;;;;;;;;;;14.70;94.20;;;;;;6274960;22;19929;-76
2023/04/14 19:20:06;;;;;;;;;;;14.70;94.30;;;;;;6248208;22;19981;-76
2023/04/14 19:22:33;;;;;;;;;;;14.70;94.50;;;;;;6274156;22;19910;-75
2023/04/14 19:25:00;;;;;;;;;;;14.70;94.40;;;;;;6274334;22;19903;-75
2023/04/14 19:27:27;;;;;;;;;;;14.70;94.40;;;;;;6274594;22;19907;-79
2023/04/14 19:29:53;;;;;;;;;;;14.70;94.30;;;;;;6275016;22;19903;-80
2023/04/14 19:32:21;;;;;;;;;;;14.70;94.30;;;;;;6273641;22;19904;-80
2023/04/14 19:34:47;;;;;;;;;;;14.60;94.30;;;;;;6274674;22;19907;-79
2023/04/14 19:37:14;;;;;;;;;;;14.60;94.30;;;;;;6275584;22;20284;-78
2023/04/14 19:39:41;;;;;;;;;;;14.60;94.40;;;;;;6275508;22;19918;-78
2023/04/14 19:42:08;;;;;;;;;;;14.60;94.20;;;;;;6274974;22;19919;-76
2023/04/14 19:44:35;;;;;;;;;;;14.60;94.30;;;;;;6275346;22;20282;-75
2023/04/14 19:47:02;;;;;;;;;;;14.60;94.50;;;;;;6275022;22;19965;-76
2023/04/14 19:49:29;;;;;;;;;;;14.60;94.40;;;;;;6275172;22;19907;-79
2023/04/14 19:51:56;;;;;;;;;;;14.60;94.30;;;;;;6270986;22;19950;-75
2023/04/14 19:54:23;;;;;;;;;;;14.60;94.50;;;;;;6272215;22;19908;-78
2023/04/14 19:56:51;;;;;;;;;;;14.60;94.30;;;;;;6272704;22;19915;-75
2023/04/14 19:59:17;;;;;;;;;;;14.60;94.30;;;;;;6272471;22;19918;-75
2023/04/14 20:01:46;;;;;;;;;;;14.60;94.30;;;;;;6271372;22;19934;-74
2023/04/14 20:04:12;;;;;;;;;;;14.60;94.30;;;;;;6272124;22;19911;-75
2023/04/14 20:40:57;;;;;;;;;;;14.50;94.40;;;;;;6268479;22;19926;-82
2023/04/14 20:43:32;;;;;;;;;;;14.40;94.30;;;;;;6270461;22;19915;-80
2023/04/14 20:45:59;;;;;;;;;;;14.40;94.40;;;;;;6270578;22;19907;-82
2023/04/14 20:48:26;;;;;;;;;;;14.40;94.40;;;;;;6271816;22;20390;-80
2023/04/14 20:50:53;;;;;;;;;;;14.50;94.50;;;;;;6271446;22;20283;-80
2023/04/14 20:53:21;;;;;;;;;;;14.50;94.70;;;;;;6271416;22;20010;-80
2023/04/14 20:55:48;;;;;;;;;;;14.60;94.80;;;;;;6269115;22;19953;-80
2023/04/14 20:58:15;;;;;;;;;;;14.60;94.80;;;;;;6272325;22;19942;-79
2023/04/14 21:00:42;;;;;;;;;;;14.60;94.80;;;;;;6272129;22;19938;-79
2023/04/14 21:03:09;;;;;;;;;;;14.60;94.80;;;;;;6271651;22;19903;-76
2023/04/14 21:05:36;;;;;;;;;;;14.70;94.90;;;;;;6272462;22;19942;-81
2023/04/14 21:08:03;;;;;;;;;;;14.70;94.90;;;;;;6244533;22;19910;-79
2023/04/14 21:10:30;;;;;;;;;;;14.70;94.80;;;;;;6271580;22;19911;-79
2023/04/14 21:12:57;;;;;;;;;;;14.70;94.90;;;;;;6272311;22;20283;-79
2023/04/14 21:15:24;;;;;;;;;;;14.80;94.90;;;;;;6273050;22;19907;-80
2023/04/14 21:17:51;;;;;;;;;;;14.80;94.90;;;;;;6272802;22;19914;-80
2023/04/14 21:20:17;;;;;;;;;;;14.80;94.90;;;;;;6244925;22;19914;-75
2023/04/14 21:22:44;;;;;;;;;;;14.80;94.80;;;;;;6272620;22;19911;-75
2023/04/14 21:25:11;;;;;;;;;;;14.90;94.80;;;;;;6271734;22;19908;-75
2023/04/14 21:27:38;;;;;;;;;;;14.90;94.70;;;;;;6273666;22;19911;-75
2023/04/14 21:30:05;;;;;;;;;;;14.90;94.50;;;;;;6246884;22;19945;-72
2023/04/14 21:32:32;;;;;;;;;;;15.00;94.60;;;;;;6248651;22;20380;-71
2023/04/14 21:34:59;;;;;;;;;;;15.00;94.60;;;;;;6249721;22;20108;-71
2023/04/14 21:37:26;;;;;;;;;;;15.10;94.50;;;;;;6277127;22;20384;-71
2023/04/14 21:39:53;;;;;;;;;;;15.10;94.50;;;;;;6276738;22;20018;-71
2023/04/14 21:42:19;;;;;;;;;;;15.20;94.40;;;;;;6277130;22;20420;-71
2023/04/14 21:44:48;;;;;;;;;;;15.20;94.50;;;;;;6276993;22;19910;-71
2023/04/14 21:47:14;;;;;;;;;;;15.30;94.40;;;;;;6277068;22;19903;-71
2023/04/14 21:49:41;;;;;;;;;;;15.30;94.30;;;;;;6276951;22;19978;-72
2023/04/14 21:52:08;;;;;;;;;;;15.30;94.20;;;;;;6277158;22;19966;-71
2023/04/14 21:54:39;;;;;;;;;;;15.30;94.20;;;;;;6276391;22;19903;-71
2023/04/14 21:57:05;;;;;;;;;;;15.40;94.20;;;;;;6276915;22;19938;-71
2023/04/14 21:59:32;;;;;;;;;;;15.40;94.00;;;;;;6277414;22;19994;-71
2023/04/14 22:01:59;;;;;;;;;;;15.50;93.90;;;;;;6276909;22;19904;-71
2023/04/14 22:04:26;;;;;;;;;;;15.50;93.90;;;;;;6276736;22;19904;-71
2023/04/14 22:06:53;;;;;;;;;;;15.60;93.90;;;;;;6276429;22;19919;-71
2023/04/14 22:09:20;;;;;;;;;;;15.60;93.60;;;;;;6276972;22;19907;-70
2023/04/14 22:11:46;;;;;;;;;;;15.60;93.60;;;;;;6250002;22;19910;-71
2023/04/14 22:14:14;;;;;;;;;;;15.70;93.50;;;;;;6277066;22;20276;-71
2023/04/14 22:16:41;;;;;;;;;;;15.70;93.30;;;;;;6277006;22;19914;-71
2023/04/14 22:19:09;;;;;;;;;;;15.70;93.00;;;;;;6276930;22;19915;-70
2023/04/14 22:21:35;;;;;;;;;;;15.70;93.00;;;;;;6277060;22;20013;-73
2023/04/14 22:24:03;;;;;;;;;;;15.80;92.90;;;;;;6276430;22;19989;-71
2023/04/14 22:26:30;;;;;;;;;;;15.90;92.90;;;;;;6277190;22;19918;-71
2023/04/14 22:28:57;;;;;;;;;;;15.90;92.90;;;;;;6249941;22;19907;-70
